Airfield :
LOGIN :

Register | Disclaimer

   EN    FR    IT 

 










Legend :    VFR   Marginal VFR   IFR   Intensive IFR   Very Intensive IFR
Visi :
Ceiling :
>= 8 km
>= 3000ft
5 to 8 km
1000 to 3000 ft
1500m to 5 km
500 to 1000 ft
800 to 1500m
200 to 500 ft
< 800m
< 200 ft
Symbols :   Thunderstorms  Fog  Heavy snow  Heavy precipitations  Wind > 20 kt
SIGMETs :     Misc.  Thunderstorms  Icing  Turbulence  Mountain Waves  Volcanic Ashes






- Airport Elevation : 13 ft
- IATA code : CEQ


LFMD - Cannes Mandelieu

CURRENT METAR :
  • 221130Z AUTO 14008KT 100V170 9999 FEW009 17/09 Q1018 NOSIG

EXPIRED METARs :
  • 221100Z AUTO 11005KT 050V220 CAVOK 17/08 Q1019 NOSIG
  • 221030Z AUTO VRB05KT 9999 FEW031 17/09 Q1019 NOSIG
  • 221000Z AUTO 08006KT 020V170 9999 BKN030 BKN037 16/09 Q1019 NOSIG
  • 220930Z AUTO 08005KT 020V190 9999 BKN029 BKN037 16/09 Q1019 NOSIG
  • 220900Z AUTO 08007KT 030V140 9999 SCT030 BKN036 16/09 Q1019 NOSIG

TAF TAF LFMD
Valid from the 22 at 09:00 until the 23 at 09:00 UTC


220800Z 2209/2309 06012KT CAVOK
BECMG 2215/2217 VRB02KT
ATIS : +33 4 93 48 73 23



MET'MAP, your aeronautical weather chart ! - Copyright ORBIFLY December 2007 - Disclaimer

ORBIFLY MET'MAP TEAM :

Programming & Development : Alexandra Zaïnal
Concept & original design : Baudouin d'Aumeries
Assistance for programming : Marc-Olivier Méhu
Technical & hardware support : Manuel Goepfert

Contact : metmap@orbifly.com




SOURCES & CREDITS :

   NOAA